sensor_id;sensor_type;location;lat;lon;timestamp;pressure;altitude;pressure_sealevel;temperature;humidity
9141;BME280;46330;50.822;7.126;2023-04-29T00:01:07;100641.84;;;12.41;100.00
9141;BME280;46330;50.822;7.126;2023-04-29T00:03:36;100642.56;;;12.46;100.00
9141;BME280;46330;50.822;7.126;2023-04-29T00:06:04;100648.84;;;12.40;100.00
9141;BME280;46330;50.822;7.126;2023-04-29T00:08:33;100650.84;;;12.31;100.00
9141;BME280;46330;50.822;7.126;2023-04-29T00:11:00;100648.28;;;12.29;100.00
9141;BME280;46330;50.822;7.126;2023-04-29T00:13:29;100652.59;;;12.30;100.00
9141;BME280;46330;50.822;7.126;2023-04-29T00:15:56;100646.41;;;12.33;100.00
9141;BME280;46330;50.822;7.126;2023-04-29T00:18:24;100651.66;;;12.33;100.00
9141;BME280;46330;50.822;7.126;2023-04-29T00:20:53;100650.03;;;12.29;100.00
9141;BME280;46330;50.822;7.126;2023-04-29T00:23:21;100660.63;;;12.24;100.00
9141;BME280;46330;50.822;7.126;2023-04-29T00:25:49;100664.91;;;12.27;100.00
9141;BME280;46330;50.822;7.126;2023-04-29T00:28:18;100664.13;;;12.25;100.00
9141;BME280;46330;50.822;7.126;2023-04-29T00:30:47;100670.09;;;12.30;100.00
9141;BME280;46330;50.822;7.126;2023-04-29T00:33:15;100671.00;;;12.29;100.00
9141;BME280;46330;50.822;7.126;2023-04-29T00:35:43;100664.13;;;12.25;100.00
9141;BME280;46330;50.822;7.126;2023-04-29T00:38:12;100678.03;;;12.27;100.00
9141;BME280;46330;50.822;7.126;2023-04-29T00:40:41;100687.78;;;12.22;100.00
9141;BME280;46330;50.822;7.126;2023-04-29T00:43:09;100685.16;;;12.23;99.99
9141;BME280;46330;50.822;7.126;2023-04-29T00:45:37;100688.91;;;12.12;98.96
9141;BME280;46330;50.822;7.126;2023-04-29T00:48:05;100695.09;;;12.09;98.32
9141;BME280;46330;50.822;7.126;2023-04-29T00:50:33;100691.03;;;11.96;96.53
9141;BME280;46330;50.822;7.126;2023-04-29T00:53:02;100685.78;;;11.98;96.25
9141;BME280;46330;50.822;7.126;2023-04-29T00:55:33;100688.28;;;12.02;96.42
9141;BME280;46330;50.822;7.126;2023-04-29T00:58:02;100695.47;;;11.94;96.48
9141;BME280;46330;50.822;7.126;2023-04-29T01:00:30;100685.16;;;11.86;95.54
9141;BME280;46330;50.822;7.126;2023-04-29T01:02:58;100692.13;;;11.88;95.74
9141;BME280;46330;50.822;7.126;2023-04-29T01:05:26;100695.56;;;11.91;95.89
9141;BME280;46330;50.822;7.126;2023-04-29T01:08:05;100701.72;;;11.89;96.54
9141;BME280;46330;50.822;7.126;2023-04-29T01:10:44;100703.44;;;11.90;96.52
9141;BME280;46330;50.822;7.126;2023-04-29T01:13:17;100707.25;;;11.76;96.33
9141;BME280;46330;50.822;7.126;2023-04-29T01:15:57;100700.28;;;11.75;96.41
9141;BME280;46330;50.822;7.126;2023-04-29T01:18:30;100693.25;;;11.77;96.41
9141;BME280;46330;50.822;7.126;2023-04-29T01:21:00;100700.31;;;11.74;95.96
9141;BME280;46330;50.822;7.126;2023-04-29T01:23:29;100705.47;;;11.77;96.51
9141;BME280;46330;50.822;7.126;2023-04-29T01:25:58;100708.03;;;11.80;96.53
9141;BME280;46330;50.822;7.126;2023-04-29T01:28:49;100711.34;;;11.88;96.42
9141;BME280;46330;50.822;7.126;2023-04-29T01:31:24;100710.47;;;11.89;97.30
9141;BME280;46330;50.822;7.126;2023-04-29T01:34:01;100708.81;;;11.83;98.13
9141;BME280;46330;50.822;7.126;2023-04-29T01:36:41;100710.03;;;11.70;99.18
9141;BME280;46330;50.822;7.126;2023-04-29T01:39:20;100712.78;;;11.61;99.33
9141;BME280;46330;50.822;7.126;2023-04-29T01:42:09;100723.53;;;11.51;99.17
9141;BME280;46330;50.822;7.126;2023-04-29T01:44:42;100720.91;;;11.49;98.47
9141;BME280;46330;50.822;7.126;2023-04-29T01:47:18;100724.59;;;11.42;97.88
9141;BME280;46330;50.822;7.126;2023-04-29T01:49:50;100723.59;;;11.48;98.14
9141;BME280;46330;50.822;7.126;2023-04-29T01:52:19;100720.97;;;11.48;97.87
9141;BME280;46330;50.822;7.126;2023-04-29T01:54:55;100720.97;;;11.46;97.33
9141;BME280;46330;50.822;7.126;2023-04-29T01:57:26;100717.47;;;11.49;97.50
9141;BME280;46330;50.822;7.126;2023-04-29T01:59:59;100722.81;;;11.43;97.06
9141;BME280;46330;50.822;7.126;2023-04-29T02:02:43;100729.72;;;11.47;96.23
9141;BME280;46330;50.822;7.126;2023-04-29T02:05:29;100721.13;;;11.40;96.60
9141;BME280;46330;50.822;7.126;2023-04-29T02:08:00;100730.03;;;11.33;96.55
9141;BME280;46330;50.822;7.126;2023-04-29T02:10:31;100729.16;;;11.31;97.28
9141;BME280;46330;50.822;7.126;2023-04-29T02:13:15;100733.47;;;11.33;98.24
9141;BME280;46330;50.822;7.126;2023-04-29T02:15:42;100737.84;;;11.34;98.07
9141;BME280;46330;50.822;7.126;2023-04-29T02:18:11;100743.06;;;11.34;98.49
9141;BME280;46330;50.822;7.126;2023-04-29T02:20:39;100740.50;;;11.31;99.04
9141;BME280;46330;50.822;7.126;2023-04-29T02:23:07;100738.94;;;11.23;100.00
9141;BME280;46330;50.822;7.126;2023-04-29T02:25:36;100746.63;;;11.30;99.67
9141;BME280;46330;50.822;7.126;2023-04-29T02:28:05;100748.63;;;11.18;99.48
9141;BME280;46330;50.822;7.126;2023-04-29T02:30:33;100746.81;;;11.21;99.87
9141;BME280;46330;50.822;7.126;2023-04-29T02:33:01;100752.13;;;11.18;99.29
9141;BME280;46330;50.822;7.126;2023-04-29T02:35:31;100754.84;;;11.14;99.28
9141;BME280;46330;50.822;7.126;2023-04-29T02:37:59;100746.19;;;11.10;98.98
9141;BME280;46330;50.822;7.126;2023-04-29T02:40:27;100758.47;;;11.05;99.82
9141;BME280;46330;50.822;7.126;2023-04-29T02:42:58;100752.31;;;11.09;99.80
9141;BME280;46330;50.822;7.126;2023-04-29T02:45:27;100759.34;;;11.07;100.00
9141;BME280;46330;50.822;7.126;2023-04-29T02:47:55;100758.53;;;11.02;100.00
9141;BME280;46330;50.822;7.126;2023-04-29T02:50:23;100768.19;;;11.02;100.00
9141;BME280;46330;50.822;7.126;2023-04-29T02:52:51;100758.53;;;11.02;100.00
9141;BME280;46330;50.822;7.126;2023-04-29T02:55:20;100761.97;;;11.06;100.00
9141;BME280;46330;50.822;7.126;2023-04-29T02:57:48;100763.66;;;11.10;100.00
9141;BME280;46330;50.822;7.126;2023-04-29T03:00:17;100768.13;;;11.05;100.00
9141;BME280;46330;50.822;7.126;2023-04-29T03:02:45;100764.69;;;11.00;100.00
9141;BME280;46330;50.822;7.126;2023-04-29T03:05:14;100765.56;;;11.00;100.00
9141;BME280;46330;50.822;7.126;2023-04-29T03:07:42;100764.59;;;11.06;100.00
9141;BME280;46330;50.822;7.126;2023-04-29T03:10:10;100768.06;;;11.06;100.00
9141;BME280;46330;50.822;7.126;2023-04-29T03:12:38;100760.34;;;11.00;100.00
9141;BME280;46330;50.822;7.126;2023-04-29T03:15:07;100772.78;;;10.88;100.00
9141;BME280;46330;50.822;7.126;2023-04-29T03:17:37;100766.44;;;10.99;100.00
9141;BME280;46330;50.822;7.126;2023-04-29T03:20:06;100767.25;;;11.03;100.00
9141;BME280;46330;50.822;7.126;2023-04-29T03:22:35;100780.63;;;10.89;100.00
9141;BME280;46330;50.822;7.126;2023-04-29T03:25:04;100777.19;;;10.86;100.00
9141;BME280;46330;50.822;7.126;2023-04-29T03:27:33;100778.06;;;10.85;100.00
9141;BME280;46330;50.822;7.126;2023-04-29T03:30:01;100780.00;;;10.75;100.00
9141;BME280;46330;50.822;7.126;2023-04-29T03:32:29;100775.84;;;10.63;100.00
9141;BME280;46330;50.822;7.126;2023-04-29T03:34:59;100784.47;;;10.68;100.00
9141;BME280;46330;50.822;7.126;2023-04-29T03:37:35;100777.59;;;10.63;100.00
9141;BME280;46330;50.822;7.126;2023-04-29T03:40:16;100770.56;;;10.65;100.00
9141;BME280;46330;50.822;7.126;2023-04-29T03:42:44;100779.34;;;10.62;100.00
9141;BME280;46330;50.822;7.126;2023-04-29T03:45:13;100774.31;;;10.52;100.00
9141;BME280;46330;50.822;7.126;2023-04-29T03:47:40;100778.53;;;10.60;100.00
9141;BME280;46330;50.822;7.126;2023-04-29T03:50:11;100778.53;;;10.60;100.00
9141;BME280;46330;50.822;7.126;2023-04-29T03:52:39;100779.53;;;10.52;100.00
9141;BME280;46330;50.822;7.126;2023-04-29T03:55:13;100776.13;;;10.47;100.00
9141;BME280;46330;50.822;7.126;2023-04-29T03:57:43;100779.50;;;10.53;100.00
9141;BME280;46330;50.822;7.126;2023-04-29T04:00:13;100788.38;;;10.43;100.00
9141;BME280;46330;50.822;7.126;2023-04-29T04:02:47;100790.31;;;10.34;100.00
9141;BME280;46330;50.822;7.126;2023-04-29T04:05:16;100789.59;;;10.22;100.00
9141;BME280;46330;50.822;7.126;2023-04-29T04:07:51;100794.00;;;10.19;100.00
9141;BME280;46330;50.822;7.126;2023-04-29T04:10:28;100797.53;;;10.16;100.00
9141;BME280;46330;50.822;7.126;2023-04-29T04:12:58;100795.75;;;10.18;100.00
9141;BME280;46330;50.822;7.126;2023-04-29T04:15:26;100802.75;;;10.15;100.00
9141;BME280;46330;50.822;7.126;2023-04-29T04:17:54;100803.69;;;10.09;100.00
9141;BME280;46330;50.822;7.126;2023-04-29T04:20:24;100811.59;;;10.06;100.00
9141;BME280;46330;50.822;7.126;2023-04-29T04:22:52;100810.66;;;10.10;100.00
9141;BME280;46330;50.822;7.126;2023-04-29T04:25:24;100812.53;;;10.02;100.00
9141;BME280;46330;50.822;7.126;2023-04-29T04:27:58;100818.47;;;10.12;100.00
9141;BME280;46330;50.822;7.126;2023-04-29T04:30:48;100816.91;;;10.00;100.00
9141;BME280;46330;50.822;7.126;2023-04-29T04:33:17;100818.72;;;9.94;100.00
9141;BME280;46330;50.822;7.126;2023-04-29T04:35:46;100827.50;;;9.88;100.00
9141;BME280;46330;50.822;7.126;2023-04-29T04:38:14;100824.00;;;9.92;100.00
9141;BME280;46330;50.822;7.126;2023-04-29T04:40:43;100831.78;;;9.94;100.00
9141;BME280;46330;50.822;7.126;2023-04-29T04:43:24;100841.63;;;9.77;100.00
9141;BME280;46330;50.822;7.126;2023-04-29T04:45:52;100841.69;;;9.70;100.00
9141;BME280;46330;50.822;7.126;2023-04-29T04:48:20;100853.00;;;9.69;100.00
9141;BME280;46330;50.822;7.126;2023-04-29T04:50:50;100851.16;;;9.81;100.00
9141;BME280;46330;50.822;7.126;2023-04-29T04:53:18;100859.06;;;9.71;100.00
9141;BME280;46330;50.822;7.126;2023-04-29T04:55:59;100859.09;;;9.70;100.00
9141;BME280;46330;50.822;7.126;2023-04-29T04:58:29;100859.94;;;9.72;100.00
9141;BME280;46330;50.822;7.126;2023-04-29T05:00:58;100866.03;;;9.72;100.00
9141;BME280;46330;50.822;7.126;2023-04-29T05:03:26;100870.44;;;9.69;100.00
9141;BME280;46330;50.822;7.126;2023-04-29T05:05:57;100867.84;;;9.67;100.00
9141;BME280;46330;50.822;7.126;2023-04-29T05:08:26;100872.19;;;9.65;100.00
9141;BME280;46330;50.822;7.126;2023-04-29T05:10:56;100877.31;;;9.74;100.00
9141;BME280;46330;50.822;7.126;2023-04-29T05:13:24;100888.69;;;9.70;100.00
9141;BME280;46330;50.822;7.126;2023-04-29T05:15:53;100893.97;;;9.67;100.00
9141;BME280;46330;50.822;7.126;2023-04-29T05:18:25;100893.97;;;9.67;100.00
9141;BME280;46330;50.822;7.126;2023-04-29T05:20:53;100899.13;;;9.72;100.00
9141;BME280;46330;50.822;7.126;2023-04-29T05:23:22;100907.00;;;9.70;100.00
9141;BME280;46330;50.822;7.126;2023-04-29T05:25:50;100911.31;;;9.71;100.00
9141;BME280;46330;50.822;7.126;2023-04-29T05:28:19;100913.19;;;9.59;100.00
9141;BME280;46330;50.822;7.126;2023-04-29T05:30:49;100909.78;;;9.54;100.00
9141;BME280;46330;50.822;7.126;2023-04-29T05:33:19;100917.47;;;9.67;100.00
9141;BME280;46330;50.822;7.126;2023-04-29T05:35:47;100912.19;;;9.72;100.00
9141;BME280;46330;50.822;7.126;2023-04-29T05:38:16;100916.50;;;9.76;100.00
9141;BME280;46330;50.822;7.126;2023-04-29T05:40:55;100920.84;;;9.77;100.00
9141;BME280;46330;50.822;7.126;2023-04-29T05:43:46;100929.59;;;9.73;100.00
9141;BME280;46330;50.822;7.126;2023-04-29T05:46:15;100925.31;;;9.67;100.00
9141;BME280;46330;50.822;7.126;2023-04-29T05:48:43;100937.53;;;9.64;100.00
9141;BME280;46330;50.822;7.126;2023-04-29T05:51:12;100938.28;;;9.72;100.00
9141;BME280;46330;50.822;7.126;2023-04-29T05:53:40;100946.06;;;9.80;100.00
9141;BME280;46330;50.822;7.126;2023-04-29T05:56:09;100947.84;;;9.74;100.00
9141;BME280;46330;50.822;7.126;2023-04-29T05:58:38;100950.44;;;9.74;100.00
9141;BME280;46330;50.822;7.126;2023-04-29T06:01:06;100942.63;;;9.74;100.00
9141;BME280;46330;50.822;7.126;2023-04-29T06:03:34;100942.53;;;9.82;100.00
9141;BME280;46330;50.822;7.126;2023-04-29T06:06:21;100948.84;;;9.64;100.00
9141;BME280;46330;50.822;7.126;2023-04-29T06:09:05;100960.91;;;9.74;100.00
9141;BME280;46330;50.822;7.126;2023-04-29T06:11:47;100961.69;;;9.81;100.00
9141;BME280;46330;50.822;7.126;2023-04-29T06:14:14;100970.47;;;9.77;100.00
9141;BME280;46330;50.822;7.126;2023-04-29T06:16:42;100969.50;;;9.84;100.00
9141;BME280;46330;50.822;7.126;2023-04-29T06:19:10;100973.00;;;9.85;100.00
9141;BME280;46330;50.822;7.126;2023-04-29T06:21:38;100974.66;;;9.90;100.00
9141;BME280;46330;50.822;7.126;2023-04-29T06:24:06;100980.75;;;9.91;100.00
9141;BME280;46330;50.822;7.126;2023-04-29T06:26:34;100986.81;;;9.96;100.00
9141;BME280;46330;50.822;7.126;2023-04-29T06:29:04;100990.31;;;9.95;100.00
9141;BME280;46330;50.822;7.126;2023-04-29T06:31:34;100992.13;;;9.90;100.00
9141;BME280;46330;50.822;7.126;2023-04-29T06:34:03;100994.78;;;9.84;100.00
9141;BME280;46330;50.822;7.126;2023-04-29T06:36:34;100991.28;;;9.86;100.00
9141;BME280;46330;50.822;7.126;2023-04-29T06:39:22;100999.94;;;9.90;100.00
9141;BME280;46330;50.822;7.126;2023-04-29T06:42:16;101002.53;;;9.91;100.00
9141;BME280;46330;50.822;7.126;2023-04-29T06:45:21;101008.50;;;10.04;100.00
9141;BME280;46330;50.822;7.126;2023-04-29T06:48:08;101011.22;;;9.93;100.00
9141;BME280;46330;50.822;7.126;2023-04-29T06:50:50;101014.69;;;9.94;100.00
9141;BME280;46330;50.822;7.126;2023-04-29T06:53:18;101015.56;;;9.94;100.00
9141;BME280;46330;50.822;7.126;2023-04-29T06:55:46;101014.75;;;9.89;100.00
9141;BME280;46330;50.822;7.126;2023-04-29T06:58:15;101020.84;;;9.90;100.00
9141;BME280;46330;50.822;7.126;2023-04-29T07:00:45;101026.13;;;9.84;100.00
9141;BME280;46330;50.822;7.126;2023-04-29T07:03:14;101026.91;;;9.90;100.00
9141;BME280;46330;50.822;7.126;2023-04-29T07:05:43;101025.03;;;10.03;100.00
9141;BME280;46330;50.822;7.126;2023-04-29T07:08:12;101035.44;;;10.10;100.00
9141;BME280;46330;50.822;7.126;2023-04-29T07:10:40;101031.91;;;10.17;100.00
9141;BME280;46330;50.822;7.126;2023-04-29T07:13:08;101045.88;;;10.10;100.00
9141;BME280;46330;50.822;7.126;2023-04-29T07:15:36;101043.25;;;10.13;100.00
9141;BME280;46330;50.822;7.126;2023-04-29T07:18:05;101044.03;;;10.23;100.00
9141;BME280;46330;50.822;7.126;2023-04-29T07:20:35;101051.75;;;10.32;100.00
9141;BME280;46330;50.822;7.126;2023-04-29T07:23:03;101049.25;;;10.23;100.00
9141;BME280;46330;50.822;7.126;2023-04-29T07:25:31;101062.25;;;10.27;100.00
9141;BME280;46330;50.822;7.126;2023-04-29T07:27:59;101063.06;;;10.36;100.00
9141;BME280;46330;50.822;7.126;2023-04-29T07:30:27;101063.78;;;10.47;100.00
9141;BME280;46330;50.822;7.126;2023-04-29T07:32:55;101061.19;;;10.45;100.00
9141;BME280;46330;50.822;7.126;2023-04-29T07:35:25;101066.34;;;10.50;100.00
9141;BME280;46330;50.822;7.126;2023-04-29T07:37:54;101066.22;;;10.62;100.00
9141;BME280;46330;50.822;7.126;2023-04-29T07:40:24;101070.75;;;10.46;100.00
9141;BME280;46330;50.822;7.126;2023-04-29T07:42:56;101078.56;;;10.51;100.00
9141;BME280;46330;50.822;7.126;2023-04-29T07:45:24;101082.13;;;10.45;100.00
9141;BME280;46330;50.822;7.126;2023-04-29T07:47:52;101075.06;;;10.52;100.00
9141;BME280;46330;50.822;7.126;2023-04-29T07:50:20;101080.16;;;10.64;100.00
9141;BME280;46330;50.822;7.126;2023-04-29T07:52:49;101081.78;;;10.72;100.00
9141;BME280;46330;50.822;7.126;2023-04-29T07:55:18;101076.22;;;10.97;100.00
9141;BME280;46330;50.822;7.126;2023-04-29T07:57:46;101074.41;;;11.02;100.00
9141;BME280;46330;50.822;7.126;2023-04-29T08:00:14;101081.75;;;10.75;99.47
9141;BME280;46330;50.822;7.126;2023-04-29T08:02:46;101085.72;;;11.04;99.75
9141;BME280;46330;50.822;7.126;2023-04-29T08:05:14;101089.25;;;11.00;99.26
9141;BME280;46330;50.822;7.126;2023-04-29T08:07:45;101091.84;;;11.03;98.87
9141;BME280;46330;50.822;7.126;2023-04-29T08:10:15;101093.34;;;11.20;98.03
9141;BME280;46330;50.822;7.126;2023-04-29T08:12:44;101091.50;;;11.25;98.08
9141;BME280;46330;50.822;7.126;2023-04-29T08:15:12;101092.63;;;11.09;98.15
9141;BME280;46330;50.822;7.126;2023-04-29T08:17:41;101098.81;;;11.02;98.76
9141;BME280;46330;50.822;7.126;2023-04-29T08:20:09;101106.63;;;11.05;98.01
9141;BME280;46330;50.822;7.126;2023-04-29T08:22:37;101102.50;;;10.88;98.63
9141;BME280;46330;50.822;7.126;2023-04-29T08:25:06;101100.59;;;11.02;99.43
9141;BME280;46330;50.822;7.126;2023-04-29T08:27:35;101108.34;;;11.08;98.52
9141;BME280;46330;50.822;7.126;2023-04-29T08:30:05;101110.25;;;10.97;98.76
9141;BME280;46330;50.822;7.126;2023-04-29T08:32:33;101117.22;;;10.96;98.63
9141;BME280;46330;50.822;7.126;2023-04-29T08:35:01;101115.47;;;10.98;98.78
9141;BME280;46330;50.822;7.126;2023-04-29T08:37:29;101112.63;;;11.13;98.63
9141;BME280;46330;50.822;7.126;2023-04-29T08:39:57;101120.56;;;11.07;98.71
9141;BME280;46330;50.822;7.126;2023-04-29T08:42:32;101125.03;;;11.01;98.79
9141;BME280;46330;50.822;7.126;2023-04-29T08:45:03;101128.59;;;10.95;99.52
9141;BME280;46330;50.822;7.126;2023-04-29T08:47:32;101129.44;;;10.97;98.88
9141;BME280;46330;50.822;7.126;2023-04-29T08:50:01;101132.91;;;10.98;97.84
9141;BME280;46330;50.822;7.126;2023-04-29T08:52:30;101125.84;;;11.04;96.93
9141;BME280;46330;50.822;7.126;2023-04-29T08:54:58;101130.00;;;11.20;97.78
9141;BME280;46330;50.822;7.126;2023-04-29T08:57:29;101138.03;;;11.08;96.39
9141;BME280;46330;50.822;7.126;2023-04-29T08:59:58;101133.59;;;11.12;96.72
9141;BME280;46330;50.822;7.126;2023-04-29T09:02:28;101143.13;;;11.16;97.00
9141;BME280;46330;50.822;7.126;2023-04-29T09:05:02;101144.97;;;11.09;95.89
9141;BME280;46330;50.822;7.126;2023-04-29T09:07:32;101138.03;;;11.05;95.82
9141;BME280;46330;50.822;7.126;2023-04-29T09:10:00;101149.50;;;10.98;96.45
9141;BME280;46330;50.822;7.126;2023-04-29T09:12:30;101142.53;;;10.97;96.95
9141;BME280;46330;50.822;7.126;2023-04-29T09:14:58;101150.44;;;10.91;96.59
9141;BME280;46330;50.822;7.126;2023-04-29T09:17:42;101146.63;;;11.15;96.63
9141;BME280;46330;50.822;7.126;2023-04-29T09:20:26;101148.25;;;11.25;94.54
9141;BME280;46330;50.822;7.126;2023-04-29T09:22:55;101153.09;;;11.52;92.37
9141;BME280;46330;50.822;7.126;2023-04-29T09:25:24;101158.41;;;12.04;89.90
9141;BME280;46330;50.822;7.126;2023-04-29T09:27:53;101149.81;;;12.45;88.47
9141;BME280;46330;50.822;7.126;2023-04-29T09:30:21;101152.34;;;12.50;86.94
9141;BME280;46330;50.822;7.126;2023-04-29T09:33:05;101158.03;;;12.71;87.39
9141;BME280;46330;50.822;7.126;2023-04-29T09:35:34;101150.34;;;12.64;87.22
9141;BME280;46330;50.822;7.126;2023-04-29T09:38:09;101155.78;;;12.52;86.72
9141;BME280;46330;50.822;7.126;2023-04-29T09:40:39;101164.69;;;12.43;86.34
9141;BME280;46330;50.822;7.126;2023-04-29T09:43:24;101159.25;;;12.06;86.57
9141;BME280;46330;50.822;7.126;2023-04-29T09:45:52;101161.06;;;12.03;87.52
9141;BME280;46330;50.822;7.126;2023-04-29T09:48:29;101170.06;;;11.86;87.33
9141;BME280;46330;50.822;7.126;2023-04-29T09:51:00;101165.78;;;11.82;87.19
9141;BME280;46330;50.822;7.126;2023-04-29T09:53:29;101176.84;;;12.00;86.57
9141;BME280;46330;50.822;7.126;2023-04-29T09:55:59;101179.50;;;11.98;87.17
9141;BME280;46330;50.822;7.126;2023-04-29T09:58:28;101179.72;;;11.84;86.37
9141;BME280;46330;50.822;7.126;2023-04-29T10:00:58;101185.97;;;11.74;86.03
9141;BME280;46330;50.822;7.126;2023-04-29T10:03:31;101189.38;;;11.82;86.56
9141;BME280;46330;50.822;7.126;2023-04-29T10:06:01;101187.72;;;11.74;86.68
9141;BME280;46330;50.822;7.126;2023-04-29T10:08:31;101193.88;;;11.73;86.59
9141;BME280;46330;50.822;7.126;2023-04-29T10:11:00;101202.69;;;11.66;86.85
9141;BME280;46330;50.822;7.126;2023-04-29T10:13:29;101196.66;;;11.59;86.96
9141;BME280;46330;50.822;7.126;2023-04-29T10:16:19;101201.06;;;11.56;86.78
9141;BME280;46330;50.822;7.126;2023-04-29T10:18:53;101196.75;;;11.53;86.95
9141;BME280;46330;50.822;7.126;2023-04-29T10:21:28;101211.38;;;11.68;87.22
9141;BME280;46330;50.822;7.126;2023-04-29T10:23:58;101214.94;;;11.64;86.95
9141;BME280;46330;50.822;7.126;2023-04-29T10:26:28;101207.03;;;11.67;87.31
9141;BME280;46330;50.822;7.126;2023-04-29T10:28:58;101206.06;;;11.75;88.17
9141;BME280;46330;50.822;7.126;2023-04-29T10:31:26;101209.50;;;11.77;87.86
9141;BME280;46330;50.822;7.126;2023-04-29T10:33:57;101207.16;;;11.58;87.84
9141;BME280;46330;50.822;7.126;2023-04-29T10:36:27;101213.50;;;11.40;88.46
9141;BME280;46330;50.822;7.126;2023-04-29T10:38:58;101216.38;;;11.22;88.86
9141;BME280;46330;50.822;7.126;2023-04-29T10:41:32;101219.66;;;11.38;89.38
9141;BME280;46330;50.822;7.126;2023-04-29T10:44:01;101216.28;;;11.29;89.75
9141;BME280;46330;50.822;7.126;2023-04-29T10:46:30;101220.44;;;11.46;88.97
9141;BME280;46330;50.822;7.126;2023-04-29T10:49:01;101227.91;;;11.76;87.98
9141;BME280;46330;50.822;7.126;2023-04-29T10:51:31;101218.34;;;11.69;87.87
9141;BME280;46330;50.822;7.126;2023-04-29T10:54:06;101223.47;;;11.79;87.18
9141;BME280;46330;50.822;7.126;2023-04-29T10:56:36;101227.84;;;11.79;87.16
9141;BME280;46330;50.822;7.126;2023-04-29T10:59:04;101225.28;;;11.74;87.00
9141;BME280;46330;50.822;7.126;2023-04-29T11:01:48;101238.44;;;11.71;88.04
9141;BME280;46330;50.822;7.126;2023-04-29T11:04:19;101234.50;;;11.39;89.27
9141;BME280;46330;50.822;7.126;2023-04-29T11:06:51;101239.66;;;11.43;88.93
9141;BME280;46330;50.822;7.126;2023-04-29T11:09:20;101249.31;;;11.41;90.06
9141;BME280;46330;50.822;7.126;2023-04-29T11:11:58;101245.72;;;11.47;89.52
9141;BME280;46330;50.822;7.126;2023-04-29T11:14:34;101236.16;;;11.46;90.38
9141;BME280;46330;50.822;7.126;2023-04-29T11:17:07;101249.47;;;11.29;90.52
9141;BME280;46330;50.822;7.126;2023-04-29T11:19:42;101246.72;;;11.37;91.02
9141;BME280;46330;50.822;7.126;2023-04-29T11:22:24;101244.97;;;11.39;90.90
9141;BME280;46330;50.822;7.126;2023-04-29T11:24:54;101240.81;;;11.21;92.96
9141;BME280;46330;50.822;7.126;2023-04-29T11:27:25;101239.00;;;11.27;92.54
9141;BME280;46330;50.822;7.126;2023-04-29T11:29:54;101246.84;;;11.27;92.78
9141;BME280;46330;50.822;7.126;2023-04-29T11:32:25;101243.28;;;11.34;93.13
9141;BME280;46330;50.822;7.126;2023-04-29T11:34:56;101252.13;;;11.26;93.02
9141;BME280;46330;50.822;7.126;2023-04-29T11:37:34;101248.56;;;11.31;93.39
9141;BME280;46330;50.822;7.126;2023-04-29T11:40:02;101251.84;;;11.49;92.85
9141;BME280;46330;50.822;7.126;2023-04-29T11:42:33;101250.22;;;11.37;93.23
9141;BME280;46330;50.822;7.126;2023-04-29T11:45:01;101255.66;;;11.23;93.62
9141;BME280;46330;50.822;7.126;2023-04-29T11:47:29;101254.84;;;11.17;94.48
9141;BME280;46330;50.822;7.126;2023-04-29T11:50:03;101250.44;;;11.19;94.79
9141;BME280;46330;50.822;7.126;2023-04-29T11:52:31;101255.53;;;11.31;95.19
9141;BME280;46330;50.822;7.126;2023-04-29T11:55:00;101249.31;;;11.41;94.64
9141;BME280;46330;50.822;7.126;2023-04-29T11:57:28;101257.13;;;11.46;93.67
9141;BME280;46330;50.822;7.126;2023-04-29T11:59:56;101266.75;;;11.41;94.21
9141;BME280;46330;50.822;7.126;2023-04-29T12:02:28;101265.81;;;11.46;93.17
9141;BME280;46330;50.822;7.126;2023-04-29T12:04:59;101264.06;;;11.47;93.80
9141;BME280;46330;50.822;7.126;2023-04-29T12:07:30;101260.69;;;11.37;94.07
9141;BME280;46330;50.822;7.126;2023-04-29T12:09:58;101264.31;;;11.30;94.58
9141;BME280;46330;50.822;7.126;2023-04-29T12:12:26;101267.75;;;11.32;94.39
9141;BME280;46330;50.822;7.126;2023-04-29T12:14:57;101263.19;;;11.46;94.39
9141;BME280;46330;50.822;7.126;2023-04-29T12:17:25;101264.84;;;11.53;94.19
9141;BME280;46330;50.822;7.126;2023-04-29T12:19:54;101275.47;;;11.46;94.09
9141;BME280;46330;50.822;7.126;2023-04-29T12:22:22;101266.75;;;11.42;94.23
9141;BME280;46330;50.822;7.126;2023-04-29T12:24:59;101268.50;;;11.40;94.83
9141;BME280;46330;50.822;7.126;2023-04-29T12:27:29;101267.78;;;11.29;94.93
9141;BME280;46330;50.822;7.126;2023-04-29T12:29:59;101266.88;;;11.31;95.33
9141;BME280;46330;50.822;7.126;2023-04-29T12:32:27;101276.28;;;11.48;94.36
9141;BME280;46330;50.822;7.126;2023-04-29T12:34:55;101267.78;;;11.27;95.15
9141;BME280;46330;50.822;7.126;2023-04-29T12:37:24;101272.09;;;11.36;95.27
9141;BME280;46330;50.822;7.126;2023-04-29T12:39:53;101269.38;;;11.42;94.87
9141;BME280;46330;50.822;7.126;2023-04-29T12:42:23;101271.81;;;11.56;94.22
9141;BME280;46330;50.822;7.126;2023-04-29T12:44:51;101280.38;;;11.71;93.64
9141;BME280;46330;50.822;7.126;2023-04-29T12:47:19;101272.31;;;11.83;93.54
9141;BME280;46330;50.822;7.126;2023-04-29T12:49:47;101274.84;;;11.90;91.55
9141;BME280;46330;50.822;7.126;2023-04-29T12:52:16;101275.53;;;12.04;90.35
9141;BME280;46330;50.822;7.126;2023-04-29T12:54:44;101279.56;;;12.24;88.48
9141;BME280;46330;50.822;7.126;2023-04-29T12:57:12;101280.19;;;12.40;87.37
9141;BME280;46330;50.822;7.126;2023-04-29T12:59:41;101283.59;;;12.47;88.07
9141;BME280;46330;50.822;7.126;2023-04-29T13:02:09;101283.16;;;12.71;86.55
9141;BME280;46330;50.822;7.126;2023-04-29T13:04:37;101281.59;;;13.10;83.80
9141;BME280;46330;50.822;7.126;2023-04-29T13:07:06;101288.75;;;13.00;85.45
9141;BME280;46330;50.822;7.126;2023-04-29T13:09:34;101282.63;;;13.01;84.88
9141;BME280;46330;50.822;7.126;2023-04-29T13:12:04;101284.50;;;12.94;84.18
9141;BME280;46330;50.822;7.126;2023-04-29T13:14:35;101283.34;;;13.08;83.38
9141;BME280;46330;50.822;7.126;2023-04-29T13:17:04;101284.78;;;12.79;84.65